createdAt,value
2018-11-05T00:00:36.024Z,0
2018-11-05T00:01:36.004Z,0
2018-11-05T00:02:35.726Z,0
2018-11-05T00:03:35.704Z,0
2018-11-05T00:04:35.677Z,0
2018-11-05T00:05:35.923Z,0
2018-11-05T00:06:35.381Z,0
2018-11-05T00:07:35.621Z,0
2018-11-05T00:08:36.142Z,0
2018-11-05T00:09:35.860Z,0
2018-11-05T00:10:35.827Z,0
2018-11-05T00:11:35.285Z,0
2018-11-05T00:12:35.529Z,0
2018-11-05T00:13:36.109Z,0
2018-11-05T00:14:35.753Z,0
2018-11-05T00:15:35.473Z,0
2018-11-05T00:16:35.445Z,0
2018-11-05T00:17:35.434Z,0
2018-11-05T00:18:35.423Z,0
2018-11-05T00:19:35.605Z,0
2018-11-05T00:20:35.380Z,0
2018-11-05T00:21:35.620Z,0
2018-11-05T00:22:35.604Z,0
2018-11-05T00:23:35.583Z,0
2018-11-05T00:24:35.560Z,0
2018-11-05T00:25:35.018Z,0
2018-11-05T00:26:35.532Z,0
2018-11-05T00:27:35.251Z,0
2018-11-05T00:28:34.954Z,0
2018-11-05T00:29:35.206Z,0
2018-11-05T00:30:35.466Z,0
2018-11-05T00:31:35.433Z,0
2018-11-05T00:32:35.685Z,0
2018-11-05T00:33:35.122Z,0
2018-11-05T00:34:35.114Z,0
2018-11-05T00:35:35.156Z,0
2018-11-05T00:36:35.329Z,0
2018-11-05T00:37:35.065Z,0
2018-11-05T00:38:35.296Z,0
2018-11-05T00:39:35.274Z,0
2018-11-05T00:40:34.987Z,0
2018-11-05T00:41:35.251Z,0
2018-11-05T00:42:34.971Z,0
2018-11-05T00:43:34.936Z,0
2018-11-05T00:44:35.190Z,0
2018-11-05T00:45:35.718Z,0
2018-11-05T00:46:35.152Z,0
2018-11-05T00:47:34.601Z,0
2018-11-05T00:48:35.374Z,0
2018-11-05T00:49:35.090Z,0
2018-11-05T00:50:35.066Z,0
2018-11-05T00:51:35.059Z,0
2018-11-05T00:52:34.776Z,0
2018-11-05T00:53:34.744Z,0
2018-11-05T00:54:34.732Z,0
2018-11-05T00:55:35.006Z,0
2018-11-05T00:56:35.922Z,0
2018-11-05T00:57:34.930Z,0
2018-11-05T00:58:34.922Z,0
2018-11-05T00:59:34.636Z,0
2018-11-05T01:00:34.356Z,0
2018-11-05T01:01:34.856Z,0
2018-11-05T01:02:34.575Z,0
2018-11-05T01:03:34.816Z,0
2018-11-05T01:04:34.806Z,0
2018-11-05T01:05:34.525Z,0
2018-11-05T01:06:34.766Z,0
2018-11-05T01:07:34.758Z,0
2018-11-05T01:08:34.724Z,0
2018-11-05T01:09:34.965Z,0
2018-11-05T01:10:35.000Z,0
2018-11-05T01:11:34.931Z,0
2018-11-05T01:12:34.710Z,0
2018-11-05T01:13:34.632Z,0
2018-11-05T01:14:33.824Z,0
2018-11-05T01:15:34.333Z,0
2018-11-05T01:16:34.856Z,0
2018-11-05T01:17:34.283Z,0
2018-11-05T01:18:34.528Z,0
2018-11-05T01:19:34.241Z,0
2018-11-05T01:20:33.701Z,0
2018-11-05T01:21:34.476Z,0
2018-11-05T01:22:34.187Z,0
2018-11-05T01:23:34.183Z,0
2018-11-05T01:24:34.156Z,0
2018-11-05T01:25:34.412Z,0
2018-11-05T01:26:34.110Z,0
2018-11-05T01:27:34.363Z,0
2018-11-05T01:28:34.067Z,0
2018-11-05T01:29:34.044Z,0
2018-11-05T01:30:34.044Z,0
2018-11-05T01:31:34.279Z,0
2018-11-05T01:32:34.521Z,0
2018-11-05T01:33:34.245Z,0
2018-11-05T01:34:33.707Z,0
2018-11-05T01:35:34.200Z,0
2018-11-05T01:36:34.446Z,0
2018-11-05T01:37:34.424Z,0
2018-11-05T01:38:33.892Z,0
2018-11-05T01:39:33.860Z,0
2018-11-05T01:40:34.367Z,0
2018-11-05T01:41:33.828Z,0
2018-11-05T01:42:34.067Z,0
2018-11-05T01:43:33.784Z,0
2018-11-05T01:44:33.499Z,0
2018-11-05T01:45:33.746Z,0
2018-11-05T01:46:33.731Z,0
2018-11-05T01:47:33.457Z,0
2018-11-05T01:48:33.955Z,0
2018-11-05T01:49:34.139Z,0
2018-11-05T01:50:33.648Z,0
2018-11-05T01:51:33.894Z,0
2018-11-05T01:52:33.634Z,0
2018-11-05T01:53:33.602Z,0
2018-11-05T01:54:33.315Z,0
2018-11-05T01:55:33.556Z,0
2018-11-05T01:56:33.269Z,0
2018-11-05T01:57:33.260Z,0
2018-11-05T01:58:33.497Z,0
2018-11-05T01:59:33.481Z,0
2018-11-05T02:00:33.726Z,0
2018-11-05T02:01:33.434Z,0
2018-11-05T02:02:33.940Z,0
2018-11-05T02:03:33.670Z,0
2018-11-05T02:04:33.383Z,0
2018-11-05T02:05:33.359Z,0
2018-11-05T02:06:33.601Z,0
2018-11-05T02:07:33.320Z,0
2018-11-05T02:08:33.565Z,0
2018-11-05T02:09:33.550Z,0
2018-11-05T02:10:34.096Z,0
2018-11-05T02:11:32.984Z,0
2018-11-05T02:12:33.239Z,0
2018-11-05T02:13:34.596Z,0
2018-11-05T02:14:33.185Z,0
2018-11-05T02:15:33.442Z,0
2018-11-05T02:16:33.420Z,0
2018-11-05T02:17:33.128Z,0
2018-11-05T02:18:33.119Z,0
2018-11-05T02:19:33.290Z,0
2018-11-05T02:20:33.348Z,0
2018-11-05T02:21:33.360Z,0
2018-11-05T02:22:33.303Z,0
2018-11-05T02:23:33.019Z,0
2018-11-05T02:24:32.727Z,0
2018-11-05T02:25:32.708Z,0
2018-11-05T02:26:32.699Z,0
2018-11-05T02:27:33.736Z,0
2018-11-05T02:28:32.927Z,0
2018-11-05T02:29:32.913Z,0
2018-11-05T02:30:33.152Z,0
2018-11-05T02:31:33.388Z,0
2018-11-05T02:32:33.113Z,0
2018-11-05T02:33:32.833Z,0
2018-11-05T02:34:33.066Z,0
2018-11-05T02:35:33.057Z,0
2018-11-05T02:36:32.512Z,0
2018-11-05T02:37:33.025Z,0
2018-11-05T02:38:33.004Z,0
2018-11-05T02:39:32.988Z,0
2018-11-05T02:40:32.963Z,0
2018-11-05T02:41:32.693Z,0
2018-11-05T02:42:32.912Z,0
2018-11-05T02:43:32.368Z,0
2018-11-05T02:44:32.627Z,0
2018-11-05T02:45:32.601Z,0
2018-11-05T02:46:32.572Z,0
2018-11-05T02:47:32.844Z,0
2018-11-05T02:48:32.274Z,0
2018-11-05T02:49:32.778Z,0
2018-11-05T02:50:32.524Z,0
2018-11-05T02:51:32.743Z,0
2018-11-05T02:52:32.202Z,0
2018-11-05T02:53:32.992Z,0
2018-11-05T02:54:32.950Z,0
2018-11-05T02:55:32.672Z,0
2018-11-05T02:56:32.915Z,0
2018-11-05T02:57:32.630Z,0
2018-11-05T02:58:32.342Z,0
2018-11-05T02:59:32.592Z,0
2018-11-05T03:00:32.838Z,0
2018-11-05T03:01:32.819Z,0
2018-11-05T03:02:32.798Z,0
2018-11-05T03:03:33.060Z,0
2018-11-05T03:04:32.492Z,0
2018-11-05T03:05:32.229Z,0
2018-11-05T03:06:32.477Z,0
2018-11-05T03:07:32.434Z,0
2018-11-05T03:08:32.151Z,0
2018-11-05T03:09:32.411Z,0
2018-11-05T03:10:31.855Z,0
2018-11-05T03:11:32.623Z,0
2018-11-05T03:12:31.818Z,0
2018-11-05T03:13:31.797Z,0
2018-11-05T03:14:32.295Z,0
2018-11-05T03:15:32.021Z,0
2018-11-05T03:16:31.738Z,0
2018-11-05T03:17:32.257Z,0
2018-11-05T03:18:32.231Z,0
2018-11-05T03:19:32.217Z,0
2018-11-05T03:20:31.931Z,0
2018-11-05T03:21:32.436Z,0
2018-11-05T03:22:31.629Z,0
2018-11-05T03:23:31.604Z,0
2018-11-05T03:24:31.857Z,0
2018-11-05T03:25:32.098Z,0
2018-11-05T03:26:31.811Z,0
2018-11-05T03:27:32.332Z,0
2018-11-05T03:28:32.307Z,0
2018-11-05T03:29:31.491Z,0
2018-11-05T03:30:31.742Z,0
2018-11-05T03:31:32.293Z,0
2018-11-05T03:32:31.704Z,0
2018-11-05T03:33:31.692Z,0
2018-11-05T03:34:31.388Z,0
2018-11-05T03:35:31.675Z,0
2018-11-05T03:36:31.883Z,0
2018-11-05T03:37:31.618Z,0
2018-11-05T03:38:31.861Z,0
2018-11-05T03:39:31.853Z,0
2018-11-05T03:40:31.561Z,0
2018-11-05T03:41:31.619Z,0
2018-11-05T03:42:31.840Z,0
2018-11-05T03:43:31.592Z,0
2018-11-05T03:44:31.981Z,0
2018-11-05T03:45:32.084Z,0
2018-11-05T03:46:31.544Z,0
2018-11-05T03:47:31.496Z,0
2018-11-05T03:48:31.829Z,0
2018-11-05T03:49:31.631Z,0
2018-11-05T03:50:31.358Z,0
2018-11-05T03:51:31.612Z,0
2018-11-05T03:52:31.329Z,0
2018-11-05T03:53:31.036Z,0
2018-11-05T03:54:31.815Z,0
2018-11-05T03:55:31.796Z,0
2018-11-05T03:56:32.166Z,0
2018-11-05T03:57:31.766Z,0
2018-11-05T03:58:31.186Z,0
2018-11-05T03:59:30.920Z,0
2018-11-05T04:00:31.439Z,0
2018-11-05T04:01:31.403Z,0
2018-11-05T04:02:31.391Z,0
2018-11-05T04:03:31.707Z,0
2018-11-05T04:04:31.201Z,0
2018-11-05T04:05:30.744Z,0
2018-11-05T04:06:31.400Z,0
2018-11-05T04:07:31.056Z,0
2018-11-05T04:08:31.255Z,0
2018-11-05T04:09:31.192Z,0
2018-11-05T04:10:30.971Z,0
2018-11-05T04:11:31.225Z,0
2018-11-05T04:12:30.410Z,0
2018-11-05T04:13:31.187Z,0
2018-11-05T04:14:31.158Z,0
2018-11-05T04:15:31.258Z,0
2018-11-05T04:16:30.860Z,0
2018-11-05T04:17:30.845Z,0
2018-11-05T04:18:31.101Z,0
2018-11-05T04:19:31.539Z,0
2018-11-05T04:20:31.048Z,0
2018-11-05T04:21:31.300Z,0
2018-11-05T04:22:31.113Z,0
2018-11-05T04:23:31.256Z,0
2018-11-05T04:24:31.236Z,0
2018-11-05T04:25:30.723Z,0
2018-11-05T04:26:31.103Z,0
2018-11-05T04:27:31.177Z,0
2018-11-05T04:28:31.503Z,0
2018-11-05T04:29:31.428Z,0
2018-11-05T04:30:31.288Z,0
2018-11-05T04:31:30.304Z,0
2018-11-05T04:32:30.814Z,0
2018-11-05T04:33:31.468Z,0
2018-11-05T04:34:31.060Z,0
2018-11-05T04:35:30.230Z,0
2018-11-05T04:36:30.945Z,0
2018-11-05T04:37:30.454Z,0
2018-11-05T04:38:30.717Z,0
2018-11-05T04:39:30.435Z,0
2018-11-05T04:40:30.929Z,0
2018-11-05T04:41:30.385Z,0
2018-11-05T04:42:30.645Z,0
2018-11-05T04:43:30.645Z,0
2018-11-05T04:44:30.590Z,0
2018-11-05T04:45:30.628Z,0
2018-11-05T04:46:30.830Z,0
2018-11-05T04:47:30.485Z,0
2018-11-05T04:48:30.782Z,0
2018-11-05T04:49:31.060Z,0
2018-11-05T04:50:31.246Z,0
2018-11-05T04:51:30.865Z,0
2018-11-05T04:52:30.450Z,0
2018-11-05T04:53:30.160Z,0
2018-11-05T04:54:30.406Z,0
2018-11-05T04:55:30.389Z,0
2018-11-05T04:56:30.367Z,0
2018-11-05T04:57:30.084Z,0
2018-11-05T04:58:30.334Z,0
2018-11-05T04:59:30.309Z,0
2018-11-05T05:00:30.032Z,0
2018-11-05T05:01:30.040Z,0
2018-11-05T05:02:30.187Z,0
2018-11-05T05:03:30.311Z,0
2018-11-05T05:04:30.318Z,0
2018-11-05T05:05:30.469Z,0
2018-11-05T05:06:30.492Z,0
2018-11-05T05:07:29.952Z,0
2018-11-05T05:08:29.604Z,0
2018-11-05T05:09:29.591Z,0
2018-11-05T05:10:30.113Z,0
2018-11-05T05:11:29.740Z,0
2018-11-05T05:12:29.798Z,0
2018-11-05T05:13:30.057Z,0
2018-11-05T05:14:30.294Z,0
2018-11-05T05:15:30.271Z,0
2018-11-05T05:16:30.118Z,0
2018-11-05T05:17:29.705Z,0
2018-11-05T05:18:29.684Z,0
2018-11-05T05:19:29.945Z,0
2018-11-05T05:20:29.647Z,0
2018-11-05T05:21:30.148Z,0
2018-11-05T05:22:30.655Z,0
2018-11-05T05:23:30.134Z,0
2018-11-05T05:24:29.309Z,0
2018-11-05T05:25:29.292Z,0
2018-11-05T05:26:29.547Z,0
2018-11-05T05:27:30.044Z,0
2018-11-05T05:28:29.496Z,0
2018-11-05T05:29:29.483Z,0
2018-11-05T05:30:29.203Z,0
2018-11-05T05:31:29.691Z,0
2018-11-05T05:32:29.147Z,0
2018-11-05T05:33:30.441Z,0
2018-11-05T05:34:29.378Z,0
2018-11-05T05:35:29.365Z,0
2018-11-05T05:36:29.349Z,0
2018-11-05T05:37:29.578Z,0
2018-11-05T05:38:29.566Z,0
2018-11-05T05:39:29.279Z,0
2018-11-05T05:40:29.265Z,0
2018-11-05T05:41:29.533Z,0
2018-11-05T05:42:29.226Z,0
2018-11-05T05:43:29.477Z,0
2018-11-05T05:44:29.184Z,0
2018-11-05T05:45:29.158Z,0
2018-11-05T05:46:29.679Z,0
2018-11-05T05:47:29.387Z,0
2018-11-05T05:48:28.851Z,0
2018-11-05T05:49:29.097Z,0
2018-11-05T05:50:29.886Z,0
2018-11-05T05:51:29.309Z,0
2018-11-05T05:52:28.772Z,0
2018-11-05T05:53:28.769Z,0
2018-11-05T05:54:28.746Z,0
2018-11-05T05:55:29.503Z,0
2018-11-05T05:56:28.951Z,0
2018-11-05T05:57:28.399Z,0
2018-11-05T05:58:28.926Z,0
2018-11-05T05:59:28.637Z,0
2018-11-05T06:00:28.613Z,0
2018-11-05T06:01:28.869Z,0
2018-11-05T06:02:28.848Z,0
2018-11-05T06:03:29.357Z,0
2018-11-05T06:04:29.340Z,0
2018-11-05T06:05:29.042Z,0
2018-11-05T06:06:29.746Z,0
2018-11-05T06:07:29.272Z,0
2018-11-05T06:08:28.712Z,0
2018-11-05T06:09:28.427Z,0
2018-11-05T06:10:28.951Z,0
2018-11-05T06:11:29.189Z,0
2018-11-05T06:12:29.174Z,0
2018-11-05T06:13:28.359Z,0
2018-11-05T06:14:28.347Z,0
2018-11-05T06:15:29.123Z,0
2018-11-05T06:16:28.573Z,0
2018-11-05T06:17:28.814Z,0
2018-11-05T06:18:28.281Z,0
2018-11-05T06:19:28.973Z,0
2018-11-05T06:20:29.027Z,0
2018-11-05T06:21:28.795Z,0
2018-11-05T06:22:28.709Z,0
2018-11-05T06:23:29.169Z,0
2018-11-05T06:24:28.424Z,0
2018-11-05T06:25:28.946Z,0
2018-11-05T06:26:28.632Z,0
2018-11-05T06:27:28.888Z,0
2018-11-05T06:28:28.886Z,0
2018-11-05T06:29:28.837Z,0
2018-11-05T06:30:28.305Z,0
2018-11-05T06:31:28.300Z,0
2018-11-05T06:32:28.515Z,0
2018-11-05T06:33:28.233Z,0
2018-11-05T06:34:28.208Z,0
2018-11-05T06:35:28.671Z,0
2018-11-05T06:36:28.714Z,0
2018-11-05T06:37:28.681Z,0
2018-11-05T06:38:27.873Z,0
2018-11-05T06:39:28.377Z,5
2018-11-05T06:40:28.394Z,5
2018-11-05T06:41:29.006Z,5
2018-11-05T06:42:28.055Z,5
2018-11-05T06:43:28.033Z,5
2018-11-05T06:44:28.580Z,5
2018-11-05T06:45:28.332Z,5
2018-11-05T06:46:28.261Z,5
2018-11-05T06:47:28.236Z,5
2018-11-05T06:48:27.678Z,5
2018-11-05T06:49:27.922Z,5
2018-11-05T06:50:27.905Z,5
2018-11-05T06:51:27.877Z,5
2018-11-05T06:52:27.601Z,5
2018-11-05T06:53:27.834Z,5
2018-11-05T06:54:27.558Z,10
2018-11-05T06:55:27.540Z,10
2018-11-05T06:56:27.781Z,10
2018-11-05T06:57:28.074Z,10
2018-11-05T06:58:27.748Z,10
2018-11-05T06:59:27.719Z,10
2018-11-05T07:00:27.462Z,10
2018-11-05T07:01:27.682Z,10
2018-11-05T07:02:27.916Z,10
2018-11-05T07:03:28.181Z,10
2018-11-05T07:04:27.941Z,10
2018-11-05T07:05:28.156Z,10
2018-11-05T07:06:27.888Z,10
2018-11-05T07:07:27.826Z,15
2018-11-05T07:08:27.808Z,15
2018-11-05T07:09:27.804Z,15
2018-11-05T07:10:27.515Z,15
2018-11-05T07:11:28.209Z,15
2018-11-05T07:12:27.740Z,15
2018-11-05T07:13:27.786Z,20
2018-11-05T07:14:27.429Z,20
2018-11-05T07:15:27.162Z,20
2018-11-05T07:16:27.399Z,20
2018-11-05T07:17:27.640Z,25
2018-11-05T07:18:28.324Z,25
2018-11-05T07:19:28.767Z,25
2018-11-05T07:20:27.585Z,25
2018-11-05T07:21:27.029Z,25
2018-11-05T07:22:27.543Z,30
2018-11-05T07:23:27.255Z,30
2018-11-05T07:24:26.975Z,30
2018-11-05T07:25:27.212Z,35
2018-11-05T07:26:27.900Z,35
2018-11-05T07:27:27.506Z,40
2018-11-05T07:28:27.170Z,40
2018-11-05T07:29:27.146Z,40
2018-11-05T07:30:27.716Z,40
2018-11-05T07:31:27.100Z,40
2018-11-05T07:32:27.093Z,40
2018-11-05T07:33:27.078Z,40
2018-11-05T07:34:27.035Z,40
2018-11-05T07:35:27.558Z,40
2018-11-05T07:36:27.006Z,40
2018-11-05T07:37:27.522Z,40
2018-11-05T07:38:26.701Z,40
2018-11-05T07:39:27.223Z,40
2018-11-05T07:40:26.403Z,40
2018-11-05T07:41:27.182Z,40
2018-11-05T07:42:26.903Z,40
2018-11-05T07:43:27.409Z,40
2018-11-05T07:44:26.320Z,40
2018-11-05T07:45:27.111Z,40
2018-11-05T07:46:27.085Z,40
2018-11-05T07:47:27.069Z,40
2018-11-05T07:48:26.781Z,45
2018-11-05T07:49:27.037Z,45
2018-11-05T07:50:27.217Z,45
2018-11-05T07:51:26.997Z,45
2018-11-05T07:52:26.975Z,40
2018-11-05T07:53:26.686Z,45
2018-11-05T07:54:27.211Z,50
2018-11-05T07:55:26.931Z,50
2018-11-05T07:56:26.925Z,50
2018-11-05T07:57:26.339Z,55
2018-11-05T07:58:27.127Z,60
2018-11-05T07:59:26.838Z,65
2018-11-05T08:00:26.566Z,70
2018-11-05T08:01:26.809Z,70
2018-11-05T08:02:26.516Z,75
2018-11-05T08:03:27.029Z,75
2018-11-05T08:04:26.736Z,75
2018-11-05T08:05:26.726Z,75
2018-11-05T08:06:26.980Z,75
2018-11-05T08:07:26.688Z,75
2018-11-05T08:08:27.035Z,70
2018-11-05T08:09:26.394Z,70
2018-11-05T08:10:26.379Z,65
2018-11-05T08:11:26.875Z,65
2018-11-05T08:12:26.064Z,65
2018-11-05T08:13:26.838Z,70
2018-11-05T08:14:26.569Z,70
2018-11-05T08:15:26.552Z,65
2018-11-05T08:16:26.526Z,65
2018-11-05T08:17:26.240Z,65
2018-11-05T08:18:26.763Z,70
2018-11-05T08:19:26.868Z,75
2018-11-05T08:20:26.464Z,85
2018-11-05T08:21:26.436Z,85
2018-11-05T08:22:26.416Z,85
2018-11-05T08:23:26.130Z,95
2018-11-05T08:24:26.109Z,100
2018-11-05T08:25:26.359Z,105
2018-11-05T08:26:25.817Z,110
2018-11-05T08:27:26.073Z,120
2018-11-05T08:28:26.046Z,120
2018-11-05T08:29:26.032Z,125
2018-11-05T08:30:26.009Z,120
2018-11-05T08:31:26.008Z,115
2018-11-05T08:32:26.497Z,115
2018-11-05T08:33:26.228Z,110
2018-11-05T08:34:26.443Z,105
2018-11-05T08:35:25.924Z,100
2018-11-05T08:36:25.644Z,105
2018-11-05T08:37:25.882Z,110
2018-11-05T08:38:26.139Z,110
2018-11-05T08:39:25.846Z,105
2018-11-05T08:40:26.752Z,100
2018-11-05T08:41:25.823Z,110
2018-11-05T08:42:25.801Z,110
2018-11-05T08:43:25.791Z,110
2018-11-05T08:44:25.763Z,95
2018-11-05T08:45:26.015Z,110
2018-11-05T08:46:26.267Z,110
2018-11-05T08:47:25.724Z,100
2018-11-05T08:48:25.976Z,100
2018-11-05T08:49:25.940Z,100
2018-11-05T08:50:26.743Z,100
2018-11-05T08:51:28.019Z,110
2018-11-05T08:52:25.904Z,95
2018-11-05T08:53:25.352Z,95
2018-11-05T08:54:26.113Z,90
2018-11-05T08:55:25.588Z,95
2018-11-05T08:56:26.099Z,95
2018-11-05T08:57:25.656Z,105
2018-11-05T08:58:25.549Z,120
2018-11-05T08:59:25.261Z,140
2018-11-05T09:00:25.507Z,135
2018-11-05T09:01:26.025Z,125
2018-11-05T09:02:25.464Z,125
2018-11-05T09:03:25.177Z,130
2018-11-05T09:04:25.481Z,120
2018-11-05T09:05:25.826Z,115
2018-11-05T09:06:25.678Z,130
2018-11-05T09:07:25.640Z,115
2018-11-05T09:08:25.363Z,125
2018-11-05T09:09:25.091Z,125
2018-11-05T09:10:26.169Z,120
2018-11-05T09:11:27.261Z,105
2018-11-05T09:12:25.317Z,100
2018-11-05T09:13:25.283Z,100
2018-11-05T09:14:25.273Z,100
2018-11-05T09:15:25.523Z,100
2018-11-05T09:16:25.549Z,100
2018-11-05T09:17:25.494Z,95
2018-11-05T09:18:24.939Z,105
2018-11-05T09:19:25.518Z,115
2018-11-05T09:20:25.166Z,130
2018-11-05T09:21:25.147Z,125
2018-11-05T09:22:25.666Z,105
2018-11-05T09:23:25.391Z,95
2018-11-05T09:24:25.108Z,105
2018-11-05T09:25:25.083Z,120
2018-11-05T09:26:25.070Z,130
2018-11-05T09:27:25.318Z,130
2018-11-05T09:28:24.791Z,130
2018-11-05T09:29:24.755Z,105
2018-11-05T09:30:24.735Z,100
2018-11-05T09:31:24.456Z,110
2018-11-05T09:32:25.242Z,125
2018-11-05T09:33:25.483Z,120
2018-11-05T09:34:25.463Z,115
2018-11-05T09:35:25.452Z,110
2018-11-05T09:36:25.475Z,120
2018-11-05T09:37:25.419Z,135
2018-11-05T09:38:25.140Z,140
2018-11-05T09:39:25.383Z,140
2018-11-05T09:40:24.847Z,145
2018-11-05T09:41:24.621Z,135
2018-11-05T09:42:24.798Z,125
2018-11-05T09:43:25.326Z,130
2018-11-05T09:44:25.032Z,145
2018-11-05T09:45:25.030Z,170
2018-11-05T09:46:25.001Z,165
2018-11-05T09:47:25.003Z,140
2018-11-05T09:48:24.976Z,135
2018-11-05T09:49:24.972Z,145
2018-11-05T09:50:24.779Z,150
2018-11-05T09:51:24.998Z,140
2018-11-05T09:52:24.912Z,145
2018-11-05T09:53:24.637Z,140
2018-11-05T09:54:24.351Z,125
2018-11-05T09:55:24.886Z,125
2018-11-05T09:56:24.853Z,140
2018-11-05T09:57:25.323Z,155
2018-11-05T09:58:25.373Z,175
2018-11-05T09:59:24.278Z,180
2018-11-05T10:00:24.259Z,190
2018-11-05T10:01:24.618Z,210
2018-11-05T10:02:25.025Z,240
2018-11-05T10:03:26.948Z,225
2018-11-05T10:04:24.539Z,180
2018-11-05T10:05:25.657Z,135
2018-11-05T10:06:24.693Z,135
2018-11-05T10:07:24.679Z,145
2018-11-05T10:08:24.404Z,140
2018-11-05T10:09:24.932Z,120
2018-11-05T10:10:25.127Z,120
2018-11-05T10:11:24.667Z,130
2018-11-05T10:12:24.076Z,145
2018-11-05T10:13:24.597Z,170
2018-11-05T10:14:24.303Z,175
2018-11-05T10:15:24.830Z,195
2018-11-05T10:16:24.095Z,195
2018-11-05T10:17:24.785Z,175
2018-11-05T10:18:24.299Z,150
2018-11-05T10:19:23.905Z,125
2018-11-05T10:20:24.210Z,125
2018-11-05T10:21:24.192Z,125
2018-11-05T10:22:23.914Z,125
2018-11-05T10:23:24.475Z,135
2018-11-05T10:24:24.315Z,170
2018-11-05T10:25:25.080Z,150
2018-11-05T10:26:24.009Z,125
2018-11-05T10:27:24.653Z,140
2018-11-05T10:28:24.084Z,140
2018-11-05T10:29:24.335Z,140
2018-11-05T10:30:24.596Z,135
2018-11-05T10:31:24.085Z,135
2018-11-05T10:32:24.433Z,140
2018-11-05T10:33:39.054Z,145
2018-11-05T10:34:24.532Z,130
2018-11-05T10:35:24.236Z,120
2018-11-05T10:36:24.505Z,115
2018-11-05T10:37:24.476Z,135
2018-11-05T10:38:23.956Z,135
2018-11-05T10:39:24.181Z,125
2018-11-05T10:40:24.654Z,115
2018-11-05T10:41:24.164Z,110
2018-11-05T10:42:23.665Z,115
2018-11-05T10:43:24.120Z,115
2018-11-05T10:44:24.525Z,115
2018-11-05T10:45:23.819Z,120
2018-11-05T10:46:24.324Z,110
2018-11-05T10:47:24.062Z,110
2018-11-05T10:48:24.055Z,110
2018-11-05T10:49:23.502Z,105
2018-11-05T10:50:24.375Z,110
2018-11-05T10:51:24.173Z,115
2018-11-05T10:52:24.155Z,125
2018-11-05T10:53:23.962Z,130
2018-11-05T10:54:23.947Z,125
2018-11-05T10:55:23.412Z,125
2018-11-05T10:56:23.404Z,130
2018-11-05T10:57:24.193Z,135
2018-11-05T10:58:23.978Z,140
2018-11-05T10:59:23.872Z,145
2018-11-05T11:00:23.863Z,145
2018-11-05T11:01:23.586Z,145
2018-11-05T11:02:24.113Z,140
2018-11-05T11:03:23.823Z,140
2018-11-05T11:04:23.688Z,140
2018-11-05T11:05:23.822Z,135
2018-11-05T11:06:23.505Z,130
2018-11-05T11:07:23.497Z,125
2018-11-05T11:08:24.013Z,125
2018-11-05T11:09:23.842Z,120
2018-11-05T11:10:23.744Z,125
2018-11-05T11:11:23.423Z,125
2018-11-05T11:12:23.936Z,135
2018-11-05T11:13:23.396Z,135
2018-11-05T11:14:23.127Z,135
2018-11-05T11:15:24.816Z,140
2018-11-05T11:16:23.621Z,145
2018-11-05T11:17:23.617Z,150
2018-11-05T11:18:23.598Z,150
2018-11-05T11:19:23.046Z,150
2018-11-05T11:20:23.559Z,150
2018-11-05T11:21:23.824Z,150
2018-11-05T11:22:23.435Z,145
2018-11-05T11:23:23.546Z,145
2018-11-05T11:24:23.256Z,150
2018-11-05T11:25:23.235Z,150
2018-11-05T11:26:23.480Z,150
2018-11-05T11:27:22.936Z,155
2018-11-05T11:28:23.551Z,145
2018-11-05T11:29:24.766Z,140
2018-11-05T11:30:23.582Z,140
2018-11-05T11:31:23.423Z,140
2018-11-05T11:32:23.664Z,140
2018-11-05T11:33:23.375Z,135
2018-11-05T11:34:23.619Z,130
2018-11-05T11:35:23.093Z,140
2018-11-05T11:36:23.364Z,150
2018-11-05T11:37:24.311Z,155
2018-11-05T11:38:23.570Z,160
2018-11-05T11:39:23.012Z,180
2018-11-05T11:40:23.274Z,210
2018-11-05T11:41:22.986Z,220
2018-11-05T11:42:23.403Z,225
2018-11-05T11:43:22.959Z,210
2018-11-05T11:44:23.885Z,250
2018-11-05T11:45:22.934Z,240
2018-11-05T11:46:23.191Z,200
2018-11-05T11:47:22.643Z,230
2018-11-05T11:48:23.174Z,265
2018-11-05T11:49:23.149Z,250
2018-11-05T11:50:23.142Z,225
2018-11-05T11:51:23.411Z,215
2018-11-05T11:52:22.901Z,215
2018-11-05T11:53:23.365Z,250
2018-11-05T11:54:22.816Z,285
2018-11-05T11:55:23.374Z,295
2018-11-05T11:56:23.073Z,285
2018-11-05T11:57:22.785Z,275
2018-11-05T11:58:23.326Z,360
2018-11-05T11:59:22.232Z,365
2018-11-05T12:00:23.062Z,265
2018-11-05T12:01:22.460Z,245
2018-11-05T12:02:23.551Z,250
2018-11-05T12:03:23.013Z,280
2018-11-05T12:04:22.954Z,315
2018-11-05T12:05:24.711Z,405
2018-11-05T12:06:22.402Z,425
2018-11-05T12:07:23.196Z,430
2018-11-05T12:08:22.651Z,445
2018-11-05T12:09:22.907Z,460
2018-11-05T12:10:22.896Z,490
2018-11-05T12:11:22.893Z,480
2018-11-05T12:12:22.615Z,450
2018-11-05T12:13:22.871Z,445
2018-11-05T12:14:23.179Z,425
2018-11-05T12:15:22.871Z,405
2018-11-05T12:16:22.843Z,355
2018-11-05T12:17:22.829Z,445
2018-11-05T12:18:22.542Z,445
2018-11-05T12:19:22.804Z,490
2018-11-05T12:20:22.950Z,500
2018-11-05T12:21:22.524Z,365
2018-11-05T12:22:23.043Z,330
2018-11-05T12:23:22.822Z,380
2018-11-05T12:24:23.083Z,435
2018-11-05T12:25:23.013Z,460
2018-11-05T12:26:22.482Z,450
2018-11-05T12:27:22.992Z,425
2018-11-05T12:28:22.993Z,385
2018-11-05T12:29:22.854Z,425
2018-11-05T12:30:22.710Z,405
2018-11-05T12:31:22.717Z,370
2018-11-05T12:32:22.166Z,240
2018-11-05T12:33:22.691Z,215
2018-11-05T12:34:22.695Z,190
2018-11-05T12:35:22.417Z,190
2018-11-05T12:36:22.936Z,185
2018-11-05T12:37:22.126Z,185
2018-11-05T12:38:22.662Z,185
2018-11-05T12:39:22.377Z,205
2018-11-05T12:40:22.669Z,250
2018-11-05T12:41:22.642Z,385
2018-11-05T12:42:22.625Z,370
2018-11-05T12:43:22.347Z,345
2018-11-05T12:44:22.364Z,360
2018-11-05T12:45:22.347Z,385
2018-11-05T12:46:22.340Z,455
2018-11-05T12:47:22.324Z,470
2018-11-05T12:48:22.579Z,455
2018-11-05T12:49:22.572Z,420
2018-11-05T12:50:22.329Z,415
2018-11-05T12:51:22.547Z,445
2018-11-05T12:52:22.546Z,465
2018-11-05T12:53:22.267Z,475
2018-11-05T12:54:22.532Z,480
2018-11-05T12:55:22.517Z,490
2018-11-05T12:56:22.253Z,500
2018-11-05T12:57:22.773Z,500
2018-11-05T12:58:22.227Z,480
2018-11-05T12:59:22.751Z,495
2018-11-05T13:00:22.496Z,495
2018-11-05T13:01:22.754Z,520
2018-11-05T13:02:22.739Z,485
2018-11-05T13:03:22.478Z,455
2018-11-05T13:04:23.302Z,505
2018-11-05T13:05:21.920Z,500
2018-11-05T13:06:22.192Z,485
2018-11-05T13:07:22.313Z,435
2018-11-05T13:08:22.177Z,420
2018-11-05T13:09:22.179Z,335
2018-11-05T13:10:22.177Z,315
2018-11-05T13:11:21.891Z,290
2018-11-05T13:12:22.155Z,275
2018-11-05T13:13:22.421Z,245
2018-11-05T13:14:22.405Z,245
2018-11-05T13:15:22.497Z,220
2018-11-05T13:16:22.126Z,185
2018-11-05T13:17:22.130Z,185
2018-11-05T13:18:22.386Z,175
2018-11-05T13:19:22.302Z,165
2018-11-05T13:20:22.113Z,165
2018-11-05T13:21:22.102Z,155
2018-11-05T13:22:23.694Z,150
2018-11-05T13:23:22.350Z,150
2018-11-05T13:24:22.218Z,150
2018-11-05T13:25:22.350Z,160
2018-11-05T13:26:22.585Z,195
2018-11-05T13:27:22.323Z,185
2018-11-05T13:28:22.508Z,165
2018-11-05T13:29:22.046Z,160
2018-11-05T13:30:22.054Z,185
2018-11-05T13:31:22.047Z,195
2018-11-05T13:32:22.287Z,225
2018-11-05T13:33:22.012Z,220
2018-11-05T13:34:22.159Z,210
2018-11-05T13:35:22.579Z,225
2018-11-05T13:36:22.461Z,205
2018-11-05T13:37:24.275Z,170
2018-11-05T13:38:23.276Z,155
2018-11-05T13:39:22.236Z,145
2018-11-05T13:40:22.490Z,120
2018-11-05T13:41:22.220Z,120
2018-11-05T13:42:22.465Z,120
2018-11-05T13:43:21.663Z,120
2018-11-05T13:44:21.926Z,120
2018-11-05T13:45:23.514Z,120
2018-11-05T13:46:25.657Z,120
2018-11-05T13:47:27.685Z,120
2018-11-05T13:48:24.267Z,120
2018-11-05T13:49:22.611Z,125
2018-11-05T13:50:23.976Z,125
2018-11-05T13:51:22.408Z,130
2018-11-05T13:52:23.806Z,130
2018-11-05T13:53:21.839Z,140
2018-11-05T13:54:22.245Z,135
2018-11-05T13:55:21.555Z,135
2018-11-05T13:56:22.338Z,135
2018-11-05T13:57:21.796Z,130
2018-11-05T13:58:22.317Z,130
2018-11-05T13:59:21.835Z,130
2018-11-05T14:00:21.797Z,130
2018-11-05T14:01:22.300Z,130
2018-11-05T14:02:21.234Z,130
2018-11-05T14:03:22.016Z,125
2018-11-05T14:04:21.729Z,125
2018-11-05T14:05:21.989Z,125
2018-11-05T14:06:21.713Z,125
2018-11-05T14:07:22.253Z,125
2018-11-05T14:08:21.696Z,120
2018-11-05T14:09:21.952Z,120
2018-11-05T14:10:22.036Z,120
2018-11-05T14:11:21.949Z,120
2018-11-05T14:12:21.917Z,115
2018-11-05T14:13:21.921Z,120
2018-11-05T14:14:21.966Z,120
2018-11-05T14:15:21.616Z,115
2018-11-05T14:16:21.658Z,120
2018-11-05T14:17:21.877Z,115